Time;durP1;ratioP1;P1;durP2;ratioP2;P2;SDS_P1;SDS_P2;PMS_P1;PMS_P2;Temp;Humidity;BMP_temperature;BMP_pressure;BME280_temperature;BME280_humidity;BME280_pressure;Samples;Min_cycle;Max_cycle;Signal;HPM_P1;HPM_P2
2021/07/09 00:00:34;;;;;;;22.17;20.17;;;20.00;99.90;;;;;;5058854;28;20430;-94
2021/07/09 00:03:28;;;;;;;21.07;19.10;;;17.20;99.90;;;;;;5058592;28;20411;-93
2021/07/09 00:06:03;;;;;;;19.57;17.77;;;17.00;99.90;;;;;;5041827;28;20423;-94
2021/07/09 00:08:39;;;;;;;19.57;17.93;;;17.30;99.90;;;;;;5058507;28;20450;-92
2021/07/09 00:14:03;;;;;;;14.10;13.00;;;17.30;99.90;;;;;;5096844;22;20519;-93
2021/07/09 00:16:30;;;;;;;12.10;11.10;;;19.40;99.90;;;;;;5036745;28;20521;-94
2021/07/09 00:19:04;;;;;;;12.80;11.80;;;17.40;99.90;;;;;;5037528;28;20418;-93
2021/07/09 00:21:35;;;;;;;12.30;11.30;;;17.30;99.90;;;;;;5039301;28;20399;-93
2021/07/09 00:24:45;;;;;;;12.90;12.00;;;17.40;99.90;;;;;;5050563;28;20411;-93
2021/07/09 00:27:20;;;;;;;14.00;12.90;;;20.30;99.90;;;;;;5038392;28;20418;-91
2021/07/09 00:29:47;;;;;;;12.83;11.97;;;17.40;99.90;;;;;;5024646;28;20612;-93
2021/07/09 00:32:15;;;;;;;12.50;11.70;;;17.50;99.90;;;;;;5028120;28;20426;-94
2021/07/09 00:34:48;;;;;;;13.90;12.70;;;17.50;99.90;;;;;;5021122;28;20423;-94
2021/07/09 00:37:18;;;;;;;12.70;11.60;;;17.40;99.90;;;;;;5038452;28;20473;-94
2021/07/09 00:39:44;;;;;;;13.27;12.00;;;17.30;99.90;;;;;;5035728;28;20423;-94
2021/07/09 00:42:17;;;;;;;13.77;12.77;;;17.40;99.90;;;;;;5038519;28;20418;-94
2021/07/09 00:44:46;;;;;;;13.77;12.43;;;14.70;99.90;;;;;;5020761;28;20426;-94
2021/07/09 00:47:24;;;;;;;15.17;13.87;;;17.40;99.90;;;;;;5037972;28;20485;-94
2021/07/09 00:50:27;;;;;;;14.37;13.27;;;18.40;99.90;;;;;;5054751;28;20473;-94
2021/07/09 00:53:13;;;;;;;9.60;8.90;;;20.50;99.90;;;;;;5057951;28;20430;-94
2021/07/09 00:56:15;;;;;;;11.83;10.73;;;20.30;99.90;;;;;;5038461;28;20486;-94
2021/07/09 00:58:43;;;;;;;12.23;11.07;;;20.50;99.90;;;;;;5038711;28;20457;-94
2021/07/09 01:01:22;;;;;;;12.63;11.50;;;17.40;99.90;;;;;;5053893;28;20406;-93
2021/07/09 01:04:00;;;;;;;19.07;17.10;;;17.30;99.90;;;;;;5054256;28;20405;-94
2021/07/09 01:07:11;;;;;;;17.93;16.23;;;17.00;99.90;;;;;;5027728;28;20419;-94
2021/07/09 01:10:26;;;;;;;16.17;14.57;;;20.20;99.90;;;;;;5057980;28;20458;-94
2021/07/09 01:13:16;;;;;;;17.30;15.60;;;20.30;99.90;;;;;;5042788;28;20522;-94
2021/07/09 01:15:49;;;;;;;17.40;14.93;;;20.10;99.90;;;;;;5040464;28;20425;-95
2021/07/09 01:18:27;;;;;;;15.73;14.03;;;18.10;99.90;;;;;;5040854;28;20426;-93
2021/07/09 01:21:20;;;;;;;15.00;13.03;;;17.40;99.90;;;;;;5040009;28;20463;-94
2021/07/09 01:24:01;;;;;;;14.97;13.77;;;20.30;99.90;;;;;;5022931;28;20409;-94
2021/07/09 01:27:12;;;;;;;18.03;16.00;;;20.40;99.90;;;;;;5039350;28;20427;-93
2021/07/09 01:30:09;;;;;;;27.43;24.57;;;19.90;99.90;;;;;;5039337;28;20502;-92
2021/07/09 01:33:10;;;;;;;18.90;16.70;;;18.50;99.90;;;;;;5051165;28;20444;-93
2021/07/09 01:35:43;;;;;;;20.87;18.27;;;19.20;99.90;;;;;;5040756;28;20482;-91
2021/07/09 01:38:12;;;;;;;18.90;17.13;;;17.10;99.90;;;;;;5098549;23;20474;-93
2021/07/09 01:40:42;;;;;;;17.10;15.30;;;17.30;99.90;;;;;;5057416;28;20449;-93
2021/07/09 01:43:59;;;;;;;15.10;13.60;;;17.30;99.90;;;;;;5039896;28;20419;-93
2021/07/09 01:47:01;;;;;;;14.80;13.77;;;20.30;99.90;;;;;;5040398;28;20430;-93
2021/07/09 01:49:33;;;;;;;12.97;11.77;;;20.20;99.90;;;;;;5040159;28;20482;-93
2021/07/09 01:52:51;;;;;;;14.40;13.10;;;17.40;99.90;;;;;;5057697;28;20423;-93
2021/07/09 01:55:24;;;;;;;14.70;13.40;;;20.30;99.90;;;;;;5039971;28;20406;-93
2021/07/09 01:58:25;;;;;;;13.03;12.03;;;20.20;99.90;;;;;;5043118;28;20418;-93
2021/07/09 02:01:47;;;;;;;16.63;14.80;;;17.00;99.90;;;;;;5057227;28;20589;-93
2021/07/09 02:04:42;;;;;;;17.77;15.10;;;19.80;99.90;;;;;;5039278;28;20411;-93
2021/07/09 02:08:18;;;;;;;16.47;14.50;;;19.30;99.90;;;;;;5031150;28;20423;-93
2021/07/09 02:10:45;;;;;;;18.90;17.10;;;17.20;99.90;;;;;;5042614;28;20461;-94
2021/07/09 02:13:45;;;;;;;27.10;17.83;;;17.10;99.90;;;;;;5058716;28;20415;-93
2021/07/09 02:16:18;;;;;;;18.67;16.93;;;17.10;99.90;;;;;;5042844;28;20409;-93
2021/07/09 02:18:59;;;;;;;22.03;17.97;;;18.30;99.90;;;;;;5059575;28;20458;-93
2021/07/09 02:21:40;;;;;;;20.00;17.53;;;17.10;99.90;;;;;;5045674;28;20457;-93
2021/07/09 02:24:58;;;;;;;18.67;16.70;;;20.20;99.90;;;;;;5044985;28;20466;-93
2021/07/09 02:27:59;;;;;;;23.93;17.67;;;18.50;99.90;;;;;;5042873;28;20499;-94
2021/07/09 02:30:46;;;;;;;28.53;21.13;;;17.20;99.90;;;;;;5052689;28;20423;-93
2021/07/09 02:33:37;;;;;;;26.40;18.80;;;17.20;99.90;;;;;;5059982;28;20398;-92
2021/07/09 02:37:14;;;;;;;23.07;19.70;;;20.20;99.90;;;;;;5059264;28;20411;-93
2021/07/09 02:40:00;;;;;;;20.73;18.53;;;18.50;99.90;;;;;;5056491;28;20493;-93
2021/07/09 02:42:53;;;;;;;22.63;19.83;;;20.30;99.90;;;;;;5050802;28;20415;-94
2021/07/09 02:45:58;;;;;;;20.70;17.90;;;17.20;99.90;;;;;;5049205;28;20418;-94
2021/07/09 02:56:53;;;;;;;20.27;18.00;;;17.20;99.90;;;;;;5037847;28;20415;-91
2021/07/09 02:59:21;;;;;;;21.30;17.50;;;17.10;99.90;;;;;;5021828;28;20458;-93
2021/07/09 03:02:15;;;;;;;28.83;20.47;;;17.00;99.90;;;;;;5004838;28;20238;-94
2021/07/09 03:05:09;;;;;;;29.47;22.57;;;17.10;99.90;;;;;;5036534;28;20431;-94
2021/07/09 03:07:42;;;;;;;27.47;20.40;;;19.90;99.90;;;;;;5021984;28;20403;-95
2021/07/09 03:17:59;;;;;;;22.93;20.43;;;17.10;99.90;;;;;;5361602;22;20481;-91
2021/07/09 03:20:34;;;;;;;22.37;19.20;;;18.70;99.90;;;;;;5020198;28;20414;-94
2021/07/09 03:23:05;;;;;;;25.30;20.47;;;17.60;99.90;;;;;;4991217;28;20473;-93
2021/07/09 03:25:43;;;;;;;23.20;20.83;;;16.90;99.90;;;;;;5023939;28;20418;-94
2021/07/09 03:28:09;;;;;;;25.60;22.90;;;18.30;99.90;;;;;;5029096;28;20482;-92
2021/07/09 03:30:43;;;;;;;24.53;20.97;;;17.00;99.90;;;;;;5033638;28;20435;-94
2021/07/09 03:33:18;;;;;;;24.23;20.80;;;17.10;99.90;;;;;;5039548;28;20475;-94
2021/07/09 03:36:34;;;;;;;21.33;19.27;;;17.10;99.90;;;;;;5007426;28;20426;-93
2021/07/09 03:39:14;;;;;;;21.60;19.30;;;19.90;99.90;;;;;;5040672;28;20425;-94
2021/07/09 03:41:44;;;;;;;46.20;41.30;;;17.10;99.90;;;;;;5040425;28;20430;-94
2021/07/09 03:44:50;;;;;;;27.80;24.80;;;19.00;99.90;;;;;;5042789;28;20422;-92
2021/07/09 03:47:48;;;;;;;24.17;21.67;;;17.10;99.90;;;;;;5012801;28;20486;-91
2021/07/09 03:50:15;;;;;;;25.80;18.10;;;17.30;99.90;;;;;;5037122;28;20443;-93
2021/07/09 03:53:02;;;;;;;21.23;17.33;;;18.20;99.90;;;;;;5038865;28;20415;-93
2021/07/09 03:55:39;;;;;;;19.20;16.07;;;17.30;99.90;;;;;;5039812;28;20399;-93
2021/07/09 03:58:06;;;;;;;15.63;14.30;;;20.30;99.90;;;;;;5054604;28;20486;-94
2021/07/09 04:00:51;;;;;;;15.77;14.20;;;17.20;99.90;;;;;;5026917;28;21000;-93
2021/07/09 04:03:18;;;;;;;16.20;14.50;;;17.20;99.90;;;;;;5038306;28;20422;-93
2021/07/09 04:05:44;;;;;;;17.87;14.40;;;17.10;99.90;;;;;;5037550;28;20398;-91
2021/07/09 04:08:11;;;;;;;24.97;16.43;;;17.00;99.90;;;;;;5035816;28;20452;-93
2021/07/09 04:10:42;;;;;;;19.40;15.73;;;17.00;99.90;;;;;;5035741;28;20231;-90
2021/07/09 04:13:15;;;;;;;17.63;16.03;;;16.40;99.90;;;;;;5031758;28;20438;-92
2021/07/09 04:15:40;;;;;;;19.63;16.80;;;19.90;99.90;;;;;;5033261;28;20399;-90
2021/07/09 04:18:09;;;;;;;19.93;17.97;;;17.00;99.90;;;;;;5051819;28;20465;-93
2021/07/09 04:20:36;;;;;;;18.00;16.10;;;17.00;99.90;;;;;;5036264;28;20238;-90
2021/07/09 04:23:03;;;;;;;19.80;16.20;;;16.90;99.90;;;;;;5052805;28;20454;-92
2021/07/09 04:25:29;;;;;;;24.77;19.27;;;17.00;99.90;;;;;;5034452;28;20415;-94
2021/07/09 04:28:00;;;;;;;26.23;21.87;;;16.80;99.90;;;;;;5017971;28;20431;-93
2021/07/09 04:30:32;;;;;;;33.50;22.70;;;19.80;99.90;;;;;;5035518;28;20426;-94
2021/07/09 04:32:58;;;;;;;25.93;22.17;;;16.90;99.90;;;;;;5030421;28;20508;-94
2021/07/09 04:35:38;;;;;;;26.87;22.10;;;16.90;99.90;;;;;;5035342;28;20439;-93
2021/07/09 04:38:03;;;;;;;22.47;20.13;;;19.80;99.90;;;;;;5028791;28;20418;-90
2021/07/09 04:40:30;;;;;;;23.80;21.07;;;17.00;99.90;;;;;;5051338;28;20413;-93
2021/07/09 04:42:56;;;;;;;28.83;23.33;;;17.00;99.90;;;;;;5019529;28;20191;-91
2021/07/09 04:45:29;;;;;;;35.23;25.77;;;17.10;99.90;;;;;;5035697;28;20423;-93
2021/07/09 04:48:01;;;;;;;28.70;25.63;;;17.10;99.90;;;;;;5034572;28;20178;-93
2021/07/09 04:50:31;;;;;;;28.53;23.40;;;19.40;99.90;;;;;;5035192;28;20407;-89
2021/07/09 04:53:03;;;;;;;31.00;23.50;;;18.70;99.90;;;;;;5053325;28;20406;-93
2021/07/09 04:55:57;;;;;;;;;;;;;;;;;;;;;
2021/07/09 04:58:31;;;;;;;29.63;22.87;;;18.00;99.90;;;;;;5047840;28;20458;-93
2021/07/09 05:01:35;;;;;;;26.23;23.40;;;17.30;99.90;;;;;;5053206;28;20406;-89
2021/07/09 05:04:07;;;;;;;25.83;19.70;;;18.70;99.90;;;;;;5037182;28;20430;-92
2021/07/09 05:06:33;;;;;;;24.90;19.63;;;17.30;99.90;;;;;;5037656;28;20494;-90
2021/07/09 05:09:06;;;;;;;23.00;19.27;;;17.30;99.90;;;;;;5052085;28;20434;-93
2021/07/09 05:11:33;;;;;;;20.73;18.73;;;17.40;99.90;;;;;;5050693;28;20498;-93
2021/07/09 05:14:04;;;;;;;19.23;17.43;;;17.40;99.90;;;;;;5054898;28;20390;-93
2021/07/09 05:16:35;;;;;;;23.23;19.57;;;17.40;99.90;;;;;;5036337;28;20522;-93
2021/07/09 05:19:01;;;;;;;22.50;20.10;;;17.40;99.90;;;;;;5036977;28;20462;-90
2021/07/09 05:21:34;;;;;;;22.77;20.57;;;17.40;99.90;;;;;;5036773;28;20437;-93
2021/07/09 05:24:14;;;;;;;23.27;20.80;;;20.20;99.90;;;;;;5033523;28;20442;-94
2021/07/09 05:26:46;;;;;;;22.50;20.20;;;18.70;99.90;;;;;;5019404;28;20418;-92
2021/07/09 05:29:13;;;;;;;27.07;19.93;;;17.50;99.90;;;;;;5053745;28;20470;-89
2021/07/09 05:31:41;;;;;;;22.70;20.33;;;17.40;99.90;;;;;;5050698;28;20941;-93
2021/07/09 05:34:36;;;;;;;27.80;24.20;;;17.60;99.90;;;;;;5018397;28;20202;-92
2021/07/09 05:37:14;;;;;;;26.90;24.00;;;17.30;99.90;;;;;;5031751;28;20442;-91
2021/07/09 05:39:40;;;;;;;31.03;24.60;;;17.00;99.90;;;;;;5035008;28;20400;-90
2021/07/09 05:42:35;;;;;;;32.07;25.83;;;17.80;99.90;;;;;;5052598;28;20402;-88
2021/07/09 05:45:01;;;;;;;32.57;29.33;;;17.90;99.90;;;;;;5036553;28;20167;-93
2021/07/09 05:48:41;;;;;;;29.70;26.83;;;18.00;99.90;;;;;;5039502;28;20418;-92
2021/07/09 05:58:32;;;;;;;32.67;29.00;;;17.90;99.90;;;;;;4952048;29;20407;-92
2021/07/09 06:01:31;;;;;;;40.70;34.37;;;18.20;99.90;;;;;;4959954;28;20562;-93
2021/07/09 06:03:57;;;;;;;39.80;34.10;;;18.20;99.90;;;;;;4935574;29;20498;-92
2021/07/09 06:06:45;;;;;;;35.93;32.37;;;18.20;99.90;;;;;;4938499;28;20427;-92
2021/07/09 06:09:13;;;;;;;36.77;32.87;;;18.20;99.90;;;;;;5054865;28;20583;-91
2021/07/09 06:11:52;;;;;;;38.33;34.47;;;18.40;99.90;;;;;;5054142;28;20418;-92
2021/07/09 06:14:19;;;;;;;38.73;34.60;;;19.90;99.90;;;;;;5038211;28;20418;-90
2021/07/09 06:16:48;;;;;;;38.73;34.60;;;18.50;99.90;;;;;;5035747;28;20418;-92
2021/07/09 06:19:42;;;;;;;44.90;38.83;;;18.40;99.90;;;;;;5050687;28;20446;-92
2021/07/09 06:22:10;;;;;;;46.00;39.37;;;21.30;99.90;;;;;;5020364;28;20517;-92
2021/07/09 06:24:36;;;;;;;40.90;35.43;;;21.30;99.90;;;;;;5036551;28;20434;-88
2021/07/09 06:27:02;;;;;;;43.00;35.90;;;18.50;99.90;;;;;;5053212;28;20411;-93
2021/07/09 06:29:27;;;;;;;42.53;38.10;;;18.30;99.90;;;;;;5051586;28;20234;-92
2021/07/09 06:32:03;;;;;;;41.20;36.80;;;18.40;99.90;;;;;;5036123;28;20430;-92
2021/07/09 06:34:51;;;;;;;45.30;39.23;;;18.80;99.90;;;;;;5032552;28;20175;-93
2021/07/09 06:37:20;;;;;;;41.13;36.83;;;21.50;99.90;;;;;;5034402;28;20425;-93
2021/07/09 06:39:52;;;;;;;40.73;36.47;;;18.50;99.90;;;;;;5055668;28;20792;-90
2021/07/09 06:42:28;;;;;;;42.30;37.77;;;20.00;99.90;;;;;;5036889;28;20437;-93
2021/07/09 06:44:56;;;;;;;42.37;37.97;;;18.60;99.90;;;;;;5035159;28;20437;-91
2021/07/09 06:47:25;;;;;;;46.10;37.17;;;18.60;99.90;;;;;;5034686;28;20422;-91
2021/07/09 06:49:51;;;;;;;43.83;35.83;;;18.50;99.90;;;;;;5033603;28;20462;-91
2021/07/09 06:52:20;;;;;;;39.77;34.40;;;18.70;99.90;;;;;;5038398;28;20414;-93
2021/07/09 06:54:45;;;;;;;41.80;36.60;;;19.40;99.90;;;;;;4995854;28;20204;-94
2021/07/09 06:57:11;;;;;;;36.87;33.17;;;18.90;99.90;;;;;;5029698;28;20408;-93
2021/07/09 06:59:42;;;;;;;35.87;32.20;;;19.30;99.90;;;;;;5011594;28;20244;-93
2021/07/09 07:02:22;;;;;;;40.93;36.33;;;18.90;98.60;;;;;;5012873;28;20419;-91
2021/07/09 07:04:51;;;;;;;42.80;33.40;;;18.90;99.90;;;;;;5008829;28;20479;-93
2021/07/09 07:07:21;;;;;;;37.23;33.50;;;19.00;99.90;;;;;;5027539;28;20458;-93
2021/07/09 07:09:50;;;;;;;32.83;29.67;;;19.20;99.00;;;;;;5030258;28;20545;-91
2021/07/09 07:12:16;;;;;;;33.93;30.60;;;19.30;99.90;;;;;;5027671;28;20797;-91
2021/07/09 07:14:47;;;;;;;32.97;29.70;;;19.40;99.90;;;;;;5042982;28;20451;-93
2021/07/09 07:17:17;;;;;;;30.60;27.60;;;19.60;99.90;;;;;;5034268;28;20554;-94
2021/07/09 07:19:45;;;;;;;31.47;28.30;;;19.80;99.90;;;;;;5033090;28;20922;-93
2021/07/09 07:22:34;;;;;;;31.67;28.57;;;19.70;99.90;;;;;;5034497;28;20498;-93
2021/07/09 07:24:59;;;;;;;32.00;28.57;;;19.80;99.90;;;;;;5049399;28;20427;-90
2021/07/09 07:27:31;;;;;;;30.50;27.50;;;20.00;99.90;;;;;;5035146;28;20442;-94
2021/07/09 07:29:58;;;;;;;29.53;26.63;;;20.00;99.90;;;;;;5026619;28;20235;-93
2021/07/09 07:32:24;;;;;;;28.20;25.70;;;20.10;98.70;;;;;;5022070;28;20411;-88
2021/07/09 07:34:53;;;;;;;27.40;24.73;;;20.30;97.50;;;;;;5020675;28;20488;-91
2021/07/09 07:37:19;;;;;;;27.37;24.70;;;20.40;88.30;;;;;;5023587;28;20499;-92
2021/07/09 07:39:47;;;;;;;31.93;28.90;;;23.40;93.80;;;;;;5020866;28;20451;-91
2021/07/09 07:42:13;;;;;;;29.33;26.67;;;19.80;89.90;;;;;;5039725;28;20204;-91
2021/07/09 07:44:50;;;;;;;31.67;28.33;;;22.80;92.50;;;;;;5047738;28;20422;-96
2021/07/09 07:47:21;;;;;;;28.47;25.80;;;21.50;93.20;;;;;;5052494;28;20196;-92
2021/07/09 07:49:47;;;;;;;28.47;25.97;;;21.40;92.00;;;;;;5032378;28;21000;-92
2021/07/09 07:52:13;;;;;;;29.23;24.60;;;21.30;91.50;;;;;;5031024;28;20426;-92
2021/07/09 07:54:39;;;;;;;27.93;25.20;;;22.40;92.30;;;;;;5023272;28;20812;-87
2021/07/09 07:57:06;;;;;;;27.93;25.37;;;21.80;87.70;;;;;;5032329;28;20172;-86
2021/07/09 07:59:32;;;;;;;27.20;24.63;;;20.60;90.30;;;;;;5031863;28;20255;-86
2021/07/09 08:02:00;;;;;;;25.00;22.70;;;22.70;90.40;;;;;;5031381;28;20526;-85
2021/07/09 08:04:25;;;;;;;25.17;22.87;;;23.50;89.90;;;;;;5014009;28;20191;-87
2021/07/09 08:06:51;;;;;;;24.97;22.47;;;22.60;87.80;;;;;;5031404;28;20419;-87
2021/07/09 08:09:16;;;;;;;23.90;21.70;;;20.90;81.60;;;;;;5010946;28;20664;-87
2021/07/09 08:11:42;;;;;;;25.63;23.00;;;21.00;78.50;;;;;;5021481;28;20181;-86
2021/07/09 08:14:07;;;;;;;25.50;23.20;;;21.80;78.00;;;;;;5011626;28;20272;-86
2021/07/09 08:16:33;;;;;;;22.37;20.27;;;21.80;77.80;;;;;;5013450;28;20169;-88
2021/07/09 08:19:00;;;;;;;24.37;22.23;;;21.20;75.20;;;;;;5030395;28;20229;-88
2021/07/09 08:21:26;;;;;;;22.60;20.60;;;22.00;72.20;;;;;;5029264;28;20535;-88
2021/07/09 08:23:51;;;;;;;21.40;19.70;;;23.40;66.20;;;;;;5028409;28;20419;-87
2021/07/09 08:26:17;;;;;;;20.73;18.93;;;23.80;64.40;;;;;;5033748;28;20648;-88
2021/07/09 08:28:43;;;;;;;19.87;18.27;;;23.40;59.80;;;;;;5033711;28;20206;-88
2021/07/09 08:31:09;;;;;;;22.13;20.23;;;24.70;59.40;;;;;;5033789;28;20251;-88
2021/07/09 08:33:46;;;;;;;20.13;18.57;;;24.00;57.30;;;;;;5016385;28;20436;-92
2021/07/09 08:36:11;;;;;;;21.40;19.50;;;25.50;56.20;;;;;;5009662;28;20164;-89
2021/07/09 08:38:37;;;;;;;18.70;17.20;;;25.60;55.30;;;;;;5006141;28;20950;-89
2021/07/09 08:41:06;;;;;;;19.60;17.90;;;28.40;57.10;;;;;;5014826;28;20239;-91
2021/07/09 08:43:46;;;;;;;18.90;17.30;;;26.70;53.00;;;;;;5034069;28;20168;-93
2021/07/09 08:46:13;;;;;;;15.60;14.40;;;27.40;52.30;;;;;;5021958;28;20423;-92
2021/07/09 08:48:42;;;;;;;14.73;13.43;;;29.50;53.00;;;;;;5014707;28;20463;-89
2021/07/09 08:51:09;;;;;;;15.27;14.00;;;28.50;50.90;;;;;;5029265;28;20431;-91
2021/07/09 08:53:35;;;;;;;15.03;13.97;;;;;;;;;;5022288;28;20422;-91
2021/07/09 08:56:03;;;;;;;15.70;14.50;;;29.60;46.30;;;;;;5019824;28;20922;-89
2021/07/09 08:58:28;;;;;;;14.00;12.80;;;31.50;45.80;;;;;;5022478;28;20506;-91
2021/07/09 09:00:54;;;;;;;16.60;15.20;;;30.30;43.90;;;;;;5003430;28;20427;-92
2021/07/09 09:03:25;;;;;;;14.90;13.60;;;29.90;43.10;;;;;;5003207;28;20188;-89
2021/07/09 09:05:53;;;;;;;13.80;12.90;;;30.40;43.40;;;;;;5021725;28;20422;-91
2021/07/09 09:08:23;;;;;;;12.53;11.63;;;31.00;42.90;;;;;;5001402;28;20548;-90
2021/07/09 09:10:50;;;;;;;12.67;11.67;;;32.40;42.40;;;;;;5018183;28;20443;-91
2021/07/09 09:13:24;;;;;;;11.70;11.00;;;32.90;41.60;;;;;;5000870;28;20410;-90
2021/07/09 09:15:58;;;;;;;12.07;11.27;;;33.10;40.30;;;;;;5017575;28;20453;-90
2021/07/09 09:18:26;;;;;;;14.67;13.47;;;33.40;38.40;;;;;;5002204;28;20462;-92
2021/07/09 09:21:10;;;;;;;10.20;9.60;;;33.40;38.80;;;;;;5009105;28;20509;-90
2021/07/09 09:23:52;;;;;;;11.50;10.33;;;33.80;38.20;;;;;;5008421;28;20411;-83
2021/07/09 09:26:42;;;;;;;9.20;8.77;;;33.90;37.80;;;;;;5023113;28;20440;-86
2021/07/09 09:29:30;;;;;;;8.93;8.13;;;33.90;36.30;;;;;;5025039;28;20565;-84
2021/07/09 09:32:06;;;;;;;10.70;9.80;;;33.60;36.20;;;;;;5020852;28;20482;-93
2021/07/09 09:34:57;;;;;;;10.17;9.57;;;33.60;36.40;;;;;;5032095;28;20418;-92
2021/07/09 09:37:33;;;;;;;9.30;8.80;;;33.10;37.80;;;;;;5054022;28;20429;-93
2021/07/09 09:40:14;;;;;;;7.97;7.50;;;33.10;39.70;;;;;;5035004;28;20432;-94
2021/07/09 09:42:50;;;;;;;7.63;6.97;;;33.20;38.50;;;;;;5035461;28;20419;-91
2021/07/09 09:45:26;;;;;;;6.73;6.33;;;31.90;37.10;;;;;;5034844;28;20437;-92
2021/07/09 09:48:06;;;;;;;7.30;6.80;;;32.40;36.90;;;;;;5029716;28;20463;-90
2021/07/09 09:50:59;;;;;;;6.03;5.73;;;32.40;36.20;;;;;;5035423;28;20521;-93
2021/07/09 09:53:35;;;;;;;7.27;6.97;;;32.10;36.10;;;;;;5015721;28;20427;-91
2021/07/09 09:56:10;;;;;;;7.50;6.77;;;33.30;38.70;;;;;;5012657;28;20520;-91
2021/07/09 09:58:36;;;;;;;7.67;7.30;;;32.60;39.00;;;;;;5013198;28;20426;-93
2021/07/09 10:01:03;;;;;;;6.53;6.27;;;33.20;39.10;;;;;;5029097;28;20492;-92
2021/07/09 10:03:29;;;;;;;7.50;7.10;;;33.20;41.20;;;;;;5027903;28;20184;-93
2021/07/09 10:05:55;;;;;;;7.03;6.73;;;29.30;41.10;;;;;;5046848;28;20418;-90
2021/07/09 10:08:26;;;;;;;6.47;6.10;;;28.70;41.30;;;;;;5047914;28;20203;-90
2021/07/09 10:10:55;;;;;;;7.13;6.83;;;27.20;41.20;;;;;;5013531;28;20529;-90
2021/07/09 10:13:24;;;;;;;8.77;7.70;;;28.10;42.00;;;;;;5031510;28;20415;-89
2021/07/09 10:15:57;;;;;;;7.47;7.07;;;27.90;42.60;;;;;;5028779;28;20449;-91
2021/07/09 10:18:23;;;;;;;7.10;6.80;;;29.40;43.60;;;;;;5029117;28;20513;-91
2021/07/09 10:20:49;;;;;;;6.40;6.20;;;29.20;42.40;;;;;;5029603;28;20459;-93
2021/07/09 10:23:19;;;;;;;7.67;7.23;;;30.30;42.90;;;;;;5024632;28;20447;-91
2021/07/09 10:25:47;;;;;;;11.50;10.33;;;27.10;42.30;;;;;;5023526;28;20435;-89
2021/07/09 10:28:24;;;;;;;8.10;7.60;;;29.60;44.60;;;;;;5023876;28;20474;-91
2021/07/09 10:30:53;;;;;;;9.43;8.93;;;27.70;43.90;;;;;;5025363;28;20439;-92
2021/07/09 10:33:34;;;;;;;9.80;8.80;;;26.90;46.10;;;;;;5028191;28;20419;-91
2021/07/09 10:36:26;;;;;;;41.53;28.97;;;27.00;44.60;;;;;;5028221;28;20545;-91
2021/07/09 10:38:54;;;;;;;7.70;7.23;;;26.20;44.40;;;;;;5027255;28;20438;-91
2021/07/09 10:41:22;;;;;;;10.63;9.73;;;27.00;45.90;;;;;;5026656;28;20420;-90
2021/07/09 10:44:18;;;;;;;6.83;6.30;;;29.40;46.50;;;;;;5024959;28;20479;-93
2021/07/09 10:46:44;;;;;;;7.17;6.77;;;26.00;43.40;;;;;;5024305;28;20420;-90
2021/07/09 10:49:11;;;;;;;6.77;6.37;;;26.20;47.30;;;;;;4674107;28;10000250;-91
2021/07/09 10:51:53;;;;;;;7.80;7.17;;;27.30;45.10;;;;;;5006786;28;20231;-91
2021/07/09 10:54:52;;;;;;;;;;;;;;;;;;;;;
2021/07/09 10:57:27;;;;;;;5.90;5.70;;;29.50;43.70;;;;;;5030952;28;20451;-88
2021/07/09 11:00:27;;;;;;;6.07;5.63;;;27.50;39.70;;;;;;5031553;28;20434;-93
2021/07/09 11:03:04;;;;;;;5.60;5.30;;;30.90;41.10;;;;;;4977608;28;20407;-92
2021/07/09 11:05:49;;;;;;;5.63;5.20;;;32.30;35.30;;;;;;5028243;28;20427;-90
2021/07/09 11:08:34;;;;;;;5.53;5.20;;;33.70;38.30;;;;;;5028806;28;20511;-91
2021/07/09 11:11:18;;;;;;;6.07;5.70;;;33.40;37.30;;;;;;5025297;28;20415;-93
2021/07/09 11:13:44;;;;;;;5.87;5.50;;;33.20;34.60;;;;;;5041937;28;20449;-91
2021/07/09 11:16:30;;;;;;;4.67;4.57;;;34.40;35.80;;;;;;5027694;28;20420;-92
2021/07/09 11:19:02;;;;;;;5.53;5.33;;;31.90;35.40;;;;;;5042661;28;20825;-93
2021/07/09 11:21:40;;;;;;;7.50;6.97;;;30.60;36.60;;;;;;5029020;28;20926;-93
2021/07/09 11:24:11;;;;;;;6.07;5.77;;;30.80;38.20;;;;;;5031721;28;20450;-90
2021/07/09 11:26:42;;;;;;;6.27;5.63;;;29.10;38.60;;;;;;5042619;28;20410;-91
2021/07/09 11:29:19;;;;;;;6.80;5.97;;;30.70;43.10;;;;;;5028042;28;20458;-90
2021/07/09 11:31:53;;;;;;;6.60;6.20;;;27.90;40.70;;;;;;5045283;28;20418;-93
2021/07/09 11:34:21;;;;;;;6.47;6.13;;;27.30;46.90;;;;;;5031728;28;20422;-91
2021/07/09 11:36:52;;;;;;;7.33;6.83;;;27.50;43.20;;;;;;5028709;28;20451;-92
2021/07/09 11:39:35;;;;;;;7.10;6.43;;;26.60;42.50;;;;;;5031403;28;20464;-91
2021/07/09 11:42:34;;;;;;;7.47;6.97;;;26.90;43.30;;;;;;5030327;28;20419;-91
2021/07/09 11:45:06;;;;;;;6.33;5.87;;;26.30;43.50;;;;;;5048692;28;20406;-93
2021/07/09 11:47:38;;;;;;;6.83;6.43;;;25.20;45.10;;;;;;4999574;28;20414;-91
2021/07/09 11:50:20;;;;;;;7.10;6.50;;;25.50;44.70;;;;;;5030625;28;20470;-91
2021/07/09 11:52:53;;;;;;;6.90;6.43;;;25.40;44.40;;;;;;5031048;28;20431;-91
2021/07/09 11:55:28;;;;;;;6.87;6.30;;;27.60;47.40;;;;;;5025100;28;20423;-87
2021/07/09 11:57:54;;;;;;;6.70;6.20;;;25.50;44.80;;;;;;5017398;28;20920;-88
2021/07/09 12:00:22;;;;;;;5.93;5.73;;;27.10;46.80;;;;;;5028491;28;20427;-91
2021/07/09 12:02:52;;;;;;;6.13;5.83;;;26.30;45.20;;;;;;5026785;28;20414;-91
2021/07/09 12:05:19;;;;;;;6.30;5.80;;;25.90;46.10;;;;;;5045541;28;20421;-87
2021/07/09 12:07:48;;;;;;;5.50;5.20;;;26.70;45.00;;;;;;5051065;28;20407;-92
2021/07/09 12:10:28;;;;;;;5.90;5.60;;;27.70;47.30;;;;;;5034724;28;20478;-90
2021/07/09 12:13:06;;;;;;;6.30;6.10;;;28.10;47.50;;;;;;5033044;28;20411;-92
2021/07/09 12:15:37;;;;;;;6.37;5.80;;;27.70;46.60;;;;;;5022815;28;20427;-92
2021/07/09 12:18:08;;;;;;;5.63;5.13;;;26.50;44.40;;;;;;5040778;28;20451;-90
2021/07/09 12:20:41;;;;;;;5.23;5.03;;;25.40;45.00;;;;;;5023307;28;20415;-90
2021/07/09 12:23:19;;;;;;;5.60;5.30;;;26.60;43.90;;;;;;5025384;28;20419;-91
2021/07/09 12:26:39;;;;;;;5.23;5.13;;;26.30;44.40;;;;;;5028520;28;20906;-92
2021/07/09 12:29:05;;;;;;;5.23;5.03;;;28.40;44.40;;;;;;5046092;28;20460;-91
2021/07/09 12:31:32;;;;;;;4.77;4.50;;;28.70;41.80;;;;;;5047628;28;20430;-91
2021/07/09 12:33:57;;;;;;;4.73;4.40;;;32.30;40.90;;;;;;5049278;28;20391;-92
2021/07/09 12:36:26;;;;;;;3.53;3.53;;;;;;;;;;5033415;28;20462;-91
2021/07/09 12:38:59;;;;;;;3.40;3.40;;;;;;;;;;5050663;28;20220;-90
2021/07/09 12:41:36;;;;;;;3.50;3.20;;;;;;;;;;5037223;28;20398;-90
2021/07/09 12:44:20;;;;;;;3.70;3.50;;;34.40;52.10;;;;;;5038296;28;20417;-93
2021/07/09 12:46:50;;;;;;;3.70;3.60;;;34.50;31.00;;;;;;5016993;28;20504;-91
2021/07/09 12:49:23;;;;;;;3.37;3.37;;;35.60;33.10;;;;;;5025294;28;20486;-90
2021/07/09 12:51:49;;;;;;;3.83;3.73;;;34.80;32.00;;;;;;5009844;28;20414;-90
2021/07/09 12:54:20;;;;;;;2.80;2.70;;;35.30;33.00;;;;;;4990706;28;20480;-91
2021/07/09 12:56:58;;;;;;;3.07;2.87;;;35.90;32.40;;;;;;5009020;28;20424;-90
2021/07/09 12:59:33;;;;;;;2.83;2.80;;;35.90;30.00;;;;;;5007812;28;20415;-92
2021/07/09 13:02:07;;;;;;;3.40;3.30;;;36.40;30.50;;;;;;5025308;28;20415;-90
2021/07/09 13:04:42;;;;;;;3.53;3.53;;;;;;;;;;4992349;28;20423;-93
2021/07/09 13:07:19;;;;;;;4.53;4.43;;;35.90;53.90;;;;;;5024050;28;20431;-90
2021/07/09 13:09:47;;;;;;;4.20;3.93;;;35.90;51.90;;;;;;5024581;28;20521;-91
2021/07/09 13:12:15;;;;;;;3.60;3.50;;;35.80;53.30;;;;;;5026114;28;20425;-92
2021/07/09 13:14:54;;;;;;;4.50;4.33;;;35.60;32.30;;;;;;5060787;28;20518;-88
2021/07/09 13:17:39;;;;;;;4.67;4.47;;;33.70;31.10;;;;;;5044966;28;20418;-92
2021/07/09 13:20:10;;;;;;;4.50;4.30;;;31.20;32.30;;;;;;5026305;28;20443;-92
2021/07/09 13:22:48;;;;;;;5.00;4.80;;;31.30;34.60;;;;;;5039522;28;20407;-92
2021/07/09 13:25:45;;;;;;;6.13;5.83;;;32.10;36.20;;;;;;5025346;28;20446;-90
2021/07/09 13:28:18;;;;;;;5.33;5.00;;;28.80;34.50;;;;;;4990707;28;21015;-91
2021/07/09 13:30:48;;;;;;;5.30;4.87;;;30.50;37.10;;;;;;5024884;28;20427;-90
2021/07/09 13:33:14;;;;;;;5.03;4.70;;;31.50;39.00;;;;;;5024644;28;20462;-92
2021/07/09 13:35:43;;;;;;;6.70;6.40;;;30.80;39.00;;;;;;5007210;28;20451;-92
2021/07/09 13:38:11;;;;;;;6.47;6.20;;;30.10;38.00;;;;;;5005903;28;20499;-92
2021/07/09 13:40:38;;;;;;;7.60;7.20;;;30.40;39.80;;;;;;5026183;28;20489;-90
2021/07/09 13:43:04;;;;;;;37.70;27.27;;;31.00;44.80;;;;;;4999610;28;20440;-90
2021/07/09 13:45:34;;;;;;;8.73;8.33;;;;;;;;;;5027661;28;20498;-91
2021/07/09 13:48:03;;;;;;;9.37;8.80;;;27.40;67.10;;;;;;5028080;28;20411;-91
2021/07/09 13:50:31;;;;;;;9.97;9.27;;;29.00;42.50;;;;;;5044628;28;20459;-92